Time;durP1;ratioP1;P1;durP2;ratioP2;P2;SDS_P1;SDS_P2;PMS_P1;PMS_P2;Temp;Humidity;BMP_temperature;BMP_pressure;BME280_temperature;BME280_humidity;BME280_pressure;Samples;Min_cycle;Max_cycle;Signal;HPM_P1;HPM_P2
2021/10/15 05:51:36;;;;;;;5.43;3.05;;;;;;;;;;10547947;27;20409;-84
2021/10/15 05:56:44;;;;;;;9.60;5.60;;;;;;;;;;10546795;28;20526;-84
2021/10/15 06:01:45;;;;;;;5.93;3.28;;;;;;;;;;10547195;28;20024;-85
2021/10/15 06:17:19;;;;;;;6.97;4.10;;;;;;;;;;10552212;28;20044;-87
2021/10/15 06:22:20;;;;;;;;;;;;;;;;;;10548729;28;20470;-85
2021/10/15 06:27:22;;;;;;;8.25;4.30;;;;;;;;;;10545159;28;20308;-86
2021/10/15 06:32:23;;;;;;;8.70;4.95;;;;;;;;;;10542729;28;20465;-87
2021/10/15 06:37:25;;;;;;;5.90;3.88;;;;;;;;;;10544325;28;20059;-86
2021/10/15 06:42:28;;;;;;;6.00;3.70;;;;;;;;;;10543210;28;20069;-86
2021/10/15 06:47:29;;;;;;;8.27;4.97;;;;;;;;;;10543989;28;20440;-84
2021/10/15 06:52:36;;;;;;;;;;;;;;;;;;10545793;28;20047;-83
2021/10/15 06:57:37;;;;;;;8.90;5.90;;;;;;;;;;10544744;28;20051;-86
2021/10/15 07:02:39;;;;;;;8.38;4.75;;;;;;;;;;10515284;28;20053;-85
2021/10/15 07:07:40;;;;;;;9.68;5.93;;;;;;;;;;10512596;28;20028;-83
2021/10/15 07:12:43;;;;;;;8.90;5.90;;;;;;;;;;10514454;28;20127;-84
2021/10/15 07:17:44;;;;;;;10.75;7.07;;;;;;;;;;10531350;28;20017;-84
2021/10/15 07:22:45;;;;;;;;;;;;;;;;;;10520173;28;20043;-83
2021/10/15 07:27:46;;;;;;;17.77;11.98;;;;;;;;;;10515120;28;19911;-84
2021/10/15 07:32:52;;;;;;;;;;;;;;;;;;10530333;28;20054;-80
2021/10/15 07:37:53;;;;;;;12.48;7.85;;;;;;;;;;10538712;28;19915;-84
2021/10/15 07:42:54;;;;;;;;;;;;;;;;;;10544098;28;20034;-81
2021/10/15 07:47:55;;;;;;;10.82;6.53;;;;;;;;;;10549644;28;19923;-84
2021/10/15 07:52:56;;;;;;;16.70;12.02;;;;;;;;;;10549331;28;20107;-83
2021/10/15 07:57:57;;;;;;;;;;;;;;;;;;10540367;28;20097;-83
2021/10/15 08:02:58;;;;;;;16.48;11.73;;;;;;;;;;10522914;28;19912;-84
2021/10/15 08:07:59;;;;;;;;;;;;;;;;;;10526080;28;20407;-84
2021/10/15 08:13:01;;;;;;;13.00;8.77;;;;;;;;;;10530247;28;19904;-87
2021/10/15 08:18:02;;;;;;;14.52;8.13;;;;;;;;;;10517429;28;20052;-85
2021/10/15 08:23:06;;;;;;;;;;;;;;;;;;10515256;28;20065;-80
2021/10/15 08:28:08;;;;;;;11.70;6.70;;;;;;;;;;10513339;28;20011;-80
2021/10/15 08:33:16;;;;;;;13.80;6.95;;;;;;;;;;10503115;28;20039;-79
2021/10/15 08:38:17;;;;;;;12.07;6.72;;;;;;;;;;10521847;28;20033;-86
2021/10/15 08:43:34;;;;;;;;;;;;;;;;;;10513868;28;20025;-83
2021/10/15 08:48:44;;;;;;;10.95;7.35;;;;;;;;;;10509363;28;19918;-83
2021/10/15 08:53:45;;;;;;;;;;;;;;;;;;10517530;28;20040;-83
2021/10/15 08:58:47;;;;;;;11.68;8.05;;;;;;;;;;10514328;28;19971;-87
2021/10/15 09:03:48;;;;;;;10.00;6.47;;;;;;;;;;10519620;28;20029;-86
2021/10/15 09:08:49;;;;;;;;;;;;;;;;;;10512973;28;20036;-85
2021/10/15 09:25:50;;;;;;;9.75;5.18;;;;;;;;;;10592111;28;20024;-87
2021/10/15 09:30:53;;;;;;;7.55;4.30;;;;;;;;;;10576562;28;20038;-87
2021/10/15 09:36:04;;;;;;;6.50;3.72;;;;;;;;;;10610597;28;20031;-86
2021/10/15 09:47:15;;;;;;;6.72;3.70;;;;;;;;;;10604185;28;20024;-87
2021/10/15 09:52:32;;;;;;;11.93;7.53;;;;;;;;;;10542644;28;20370;-86
2021/10/15 09:57:35;;;;;;;4.55;3.47;;;;;;;;;;10604708;28;20137;-84
2021/10/15 10:02:37;;;;;;;6.50;3.50;;;;;;;;;;10588016;28;20028;-82
2021/10/15 10:07:39;;;;;;;6.00;2.80;;;;;;;;;;10601551;28;20034;-85
2021/10/15 10:12:41;;;;;;;4.63;2.90;;;;;;;;;;10595466;28;20032;-83
2021/10/15 10:18:01;;;;;;;8.25;4.53;;;;;;;;;;10592511;28;20028;-82
2021/10/15 10:23:22;;;;;;;6.97;4.10;;;;;;;;;;10590636;28;20388;-83
2021/10/15 10:28:23;;;;;;;7.57;4.20;;;;;;;;;;10624675;27;20040;-82
2021/10/15 10:33:25;;;;;;;4.18;2.90;;;;;;;;;;10602136;27;20036;-83
2021/10/15 10:38:26;;;;;;;6.05;3.50;;;;;;;;;;10604937;28;20023;-82
2021/10/15 10:43:27;;;;;;;3.92;2.30;;;;;;;;;;10617420;28;20016;-82
2021/10/15 10:48:28;;;;;;;7.47;4.85;;;;;;;;;;10598212;28;20034;-82
2021/10/15 10:53:29;;;;;;;7.57;4.65;;;;;;;;;;10598831;28;20040;-84
2021/10/15 10:58:37;;;;;;;5.57;3.70;;;;;;;;;;10597232;28;20028;-84
2021/10/15 11:03:38;;;;;;;3.47;1.77;;;;;;;;;;10604840;28;20016;-84
2021/10/15 11:08:42;;;;;;;6.00;3.13;;;;;;;;;;10624133;28;20046;-86
2021/10/15 11:13:46;;;;;;;4.57;2.50;;;;;;;;;;10599878;28;20037;-86
2021/10/15 11:18:47;;;;;;;3.63;2.08;;;;;;;;;;10600890;22;20073;-83
2021/10/15 11:23:49;;;;;;;5.05;2.20;;;;;;;;;;10574070;28;20048;-81
2021/10/15 11:28:50;;;;;;;3.50;1.80;;;;;;;;;;10572048;28;20095;-82
2021/10/15 11:33:51;;;;;;;4.40;1.67;;;;;;;;;;10572572;28;20420;-82
2021/10/15 11:38:59;;;;;;;3.78;1.48;;;;;;;;;;10573804;28;20432;-82
2021/10/15 11:44:00;;;;;;;3.33;1.40;;;;;;;;;;10574683;28;20028;-85
2021/10/15 11:49:02;;;;;;;3.80;1.38;;;;;;;;;;10565494;28;20482;-85
2021/10/15 11:54:03;;;;;;;3.80;1.33;;;;;;;;;;10564463;28;20024;-86
2021/10/15 11:59:08;;;;;;;3.00;1.20;;;;;;;;;;10563046;28;20026;-84
2021/10/15 12:04:10;;;;;;;4.68;1.27;;;;;;;;;;10562655;28;20043;-83
2021/10/15 12:09:11;;;;;;;4.65;1.23;;;;;;;;;;10554081;28;20055;-83
2021/10/15 12:14:15;;;;;;;3.53;1.00;;;;;;;;;;10555233;28;20024;-83
2021/10/15 12:19:35;;;;;;;4.75;1.55;;;;;;;;;;10554348;28;20039;-84
2021/10/15 12:24:38;;;;;;;3.53;1.20;;;;;;;;;;10552890;28;20118;-82
2021/10/15 12:29:40;;;;;;;4.25;1.23;;;;;;;;;;10551221;28;20027;-85
2021/10/15 12:35:00;;;;;;;2.75;1.17;;;;;;;;;;10551835;28;20020;-84
2021/10/15 12:40:20;;;;;;;5.75;1.25;;;;;;;;;;10551842;28;20028;-84
2021/10/15 12:45:23;;;;;;;3.75;1.02;;;;;;;;;;10549872;28;20020;-84
2021/10/15 12:50:24;;;;;;;4.85;1.30;;;;;;;;;;10551132;28;20112;-83
2021/10/15 12:55:26;;;;;;;2.83;1.00;;;;;;;;;;10550055;28;20416;-86
2021/10/15 13:00:27;;;;;;;6.57;1.35;;;;;;;;;;10559863;28;20020;-85
2021/10/15 13:05:29;;;;;;;4.88;1.08;;;;;;;;;;10550642;28;20024;-87
2021/10/15 13:10:30;;;;;;;4.85;1.23;;;;;;;;;;10547592;28;20028;-85
2021/10/15 13:15:31;;;;;;;6.60;1.75;;;;;;;;;;10548276;28;20035;-85
2021/10/15 13:27:06;;;;;;;3.80;1.38;;;;;;;;;;10378510;28;20022;-86
2021/10/15 13:38:31;;;;;;;3.08;1.17;;;;;;;;;;10396961;28;20034;-85
2021/10/15 13:54:35;;;;;;;4.22;1.20;;;;;;;;;;10570547;28;20028;-85
2021/10/15 13:59:47;;;;;;;5.00;1.10;;;;;;;;;;10552636;28;20028;-86
2021/10/15 14:04:54;;;;;;;3.88;1.00;;;;;;;;;;10531984;28;20103;-85
2021/10/15 14:09:55;;;;;;;4.00;1.10;;;;;;;;;;10512320;28;20046;-85
2021/10/15 14:14:56;;;;;;;4.00;1.00;;;;;;;;;;10513799;28;20068;-85
2021/10/15 14:19:57;;;;;;;4.18;1.30;;;;;;;;;;10514569;28;20045;-86
2021/10/15 14:24:58;;;;;;;3.75;1.20;;;;;;;;;;10518818;28;20471;-85
2021/10/15 14:29:59;;;;;;;6.82;1.45;;;;;;;;;;10515856;28;20092;-85
2021/10/15 14:35:00;;;;;;;4.93;1.20;;;;;;;;;;10515554;28;20024;-85
2021/10/15 14:40:04;;;;;;;5.07;1.25;;;;;;;;;;10516026;28;20021;-85
2021/10/15 14:45:05;;;;;;;4.32;1.38;;;;;;;;;;10518046;28;20466;-85
2021/10/15 14:50:06;;;;;;;3.72;1.38;;;;;;;;;;10516505;28;20044;-86
2021/10/15 14:55:07;;;;;;;5.38;1.48;;;;;;;;;;10517253;28;20522;-85
2021/10/15 15:00:09;;;;;;;6.68;1.33;;;;;;;;;;10523175;28;20029;-85
2021/10/15 15:05:10;;;;;;;4.68;1.23;;;;;;;;;;10536876;28;20032;-85
2021/10/15 15:10:11;;;;;;;6.10;1.35;;;;;;;;;;10515789;28;20071;-84
2021/10/15 15:15:12;;;;;;;5.07;2.50;;;;;;;;;;10512511;28;20024;-84
2021/10/15 15:20:14;;;;;;;6.00;1.70;;;;;;;;;;10509765;28;20170;-87
2021/10/15 15:25:15;;;;;;;5.35;1.70;;;;;;;;;;10509260;28;20028;-86
2021/10/15 15:30:16;;;;;;;5.30;1.50;;;;;;;;;;10508389;28;20031;-87
2021/10/15 15:35:17;;;;;;;4.88;1.65;;;;;;;;;;10507472;28;20028;-87
2021/10/15 15:40:18;;;;;;;3.28;1.45;;;;;;;;;;10505330;28;20465;-87
2021/10/15 15:45:20;;;;;;;4.35;1.38;;;;;;;;;;10514704;28;20417;-87
2021/10/15 15:50:24;;;;;;;5.25;1.38;;;;;;;;;;10509377;28;20032;-86
2021/10/15 15:55:25;;;;;;;3.00;1.35;;;;;;;;;;10520696;28;20115;-86
2021/10/15 16:00:26;;;;;;;5.65;1.75;;;;;;;;;;10522681;28;20033;-85
2021/10/15 16:05:28;;;;;;;4.85;1.90;;;;;;;;;;10521363;28;20410;-86
2021/10/15 16:10:29;;;;;;;6.45;2.10;;;;;;;;;;10518266;28;20021;-85
2021/10/15 16:15:30;;;;;;;5.85;1.70;;;;;;;;;;10522193;28;20070;-84
2021/10/15 16:20:54;;;;;;;7.75;2.58;;;;;;;;;;10513927;28;20028;-87
2021/10/15 16:26:18;;;;;;;6.70;1.40;;;;;;;;;;10511202;28;20032;-85
2021/10/15 16:31:59;;;;;;;6.70;2.08;;;;;;;;;;10506775;28;20035;-84
2021/10/15 16:37:26;;;;;;;9.60;2.00;;;;;;;;;;10502954;28;20025;-85
2021/10/15 16:48:44;;;;;;;6.72;2.40;;;;;;;;;;10502114;28;20029;-86
2021/10/15 16:54:25;;;;;;;6.53;2.03;;;;;;;;;;10335777;28;20037;-86
2021/10/15 17:00:29;;;;;;;6.93;2.17;;;;;;;;;;10324015;28;20026;-86
2021/10/15 17:16:57;;;;;;;5.30;1.67;;;;;;;;;;10460570;22;20394;-85
2021/10/15 17:21:58;;;;;;;6.57;2.45;;;;;;;;;;10410725;28;20021;-86
2021/10/15 17:26:59;;;;;;;6.57;2.45;;;;;;;;;;10410658;28;20030;-86
2021/10/15 17:32:00;;;;;;;4.30;2.10;;;;;;;;;;10410100;28;20026;-85
2021/10/15 17:37:02;;;;;;;5.53;2.15;;;;;;;;;;10427865;28;20030;-85
2021/10/15 17:42:03;;;;;;;5.60;2.20;;;;;;;;;;10411770;28;20028;-82
2021/10/15 17:47:07;;;;;;;7.55;2.05;;;;;;;;;;10411037;28;20044;-82
2021/10/15 17:52:08;;;;;;;4.45;1.98;;;;;;;;;;10426183;28;20029;-81
2021/10/15 17:57:09;;;;;;;4.97;2.00;;;;;;;;;;10431374;28;20037;-82
2021/10/15 18:02:10;;;;;;;3.67;1.80;;;;;;;;;;10452088;28;20105;-84
2021/10/15 18:07:17;;;;;;;3.95;2.17;;;;;;;;;;10429994;28;20112;-81
2021/10/15 18:12:18;;;;;;;6.22;2.97;;;;;;;;;;10430213;28;20037;-82
2021/10/15 18:17:20;;;;;;;6.20;3.83;;;;;;;;;;10433038;28;20068;-82
2021/10/15 18:22:21;;;;;;;9.02;5.60;;;;;;;;;;10432341;28;20033;-82
2021/10/15 18:27:22;;;;;;;9.98;6.18;;;;;;;;;;10428869;28;20053;-82
2021/10/15 18:32:23;;;;;;;10.48;7.35;;;;;;;;;;10421960;28;20040;-83
2021/10/15 18:37:24;;;;;;;10.02;7.00;;;;;;;;;;10437967;28;20040;-84
2021/10/15 18:42:25;;;;;;;11.80;7.68;;;;;;;;;;10420410;28;20025;-84
2021/10/15 18:47:26;;;;;;;11.55;7.88;;;;;;;;;;10416981;28;20029;-84
2021/10/15 18:52:27;;;;;;;11.15;8.15;;;;;;;;;;10415176;28;20049;-85
2021/10/15 18:57:28;;;;;;;13.65;9.18;;;;;;;;;;10418401;28;20071;-84
2021/10/15 19:02:29;;;;;;;13.70;9.45;;;;;;;;;;10417751;28;20037;-85
2021/10/15 19:07:29;;;;;;;14.82;11.05;;;;;;;;;;10420551;28;20436;-85
2021/10/15 19:12:30;;;;;;;15.60;11.20;;;;;;;;;;10442197;28;20029;-84
2021/10/15 19:17:31;;;;;;;13.52;10.27;;;;;;;;;;10422268;28;20097;-85
2021/10/15 19:22:32;;;;;;;16.05;11.85;;;;;;;;;;10431770;28;20479;-84
2021/10/15 19:27:35;;;;;;;18.40;13.35;;;;;;;;;;10412740;28;20060;-84
2021/10/15 19:32:36;;;;;;;19.65;13.88;;;;;;;;;;10413786;28;20057;-84
2021/10/15 19:37:37;;;;;;;19.92;14.77;;;;;;;;;;10413260;28;20022;-84
2021/10/15 19:42:38;;;;;;;21.60;15.98;;;;;;;;;;10413128;28;20029;-84
2021/10/15 19:47:39;;;;;;;18.65;12.32;;;;;;;;;;10413546;28;20037;-85
2021/10/15 19:52:40;;;;;;;18.52;13.45;;;;;;;;;;10420743;28;20022;-85
2021/10/15 19:57:41;;;;;;;18.52;11.48;;;;;;;;;;10437977;28;20033;-85
2021/10/15 20:02:42;;;;;;;16.83;11.98;;;;;;;;;;10416095;28;20033;-85
2021/10/15 20:07:43;;;;;;;19.55;15.13;;;;;;;;;;10415127;28;20034;-85
2021/10/15 20:12:43;;;;;;;26.55;19.30;;;;;;;;;;10414075;28;20116;-84
2021/10/15 20:17:44;;;;;;;27.17;19.65;;;;;;;;;;10423907;28;20045;-84
2021/10/15 20:22:47;;;;;;;24.90;19.58;;;;;;;;;;10417040;28;20036;-86
2021/10/15 20:27:50;;;;;;;27.73;19.67;;;;;;;;;;10416047;28;20026;-84
2021/10/15 20:32:51;;;;;;;24.90;16.63;;;;;;;;;;10431912;28;20030;-84
2021/10/15 20:37:56;;;;;;;25.05;17.15;;;;;;;;;;10444609;28;20033;-85
2021/10/15 20:42:57;;;;;;;21.27;15.40;;;;;;;;;;10420050;28;20021;-85
2021/10/15 20:47:58;;;;;;;20.60;15.10;;;;;;;;;;10432575;28;20017;-83
2021/10/15 20:52:59;;;;;;;18.95;12.85;;;;;;;;;;10446580;28;20025;-84
2021/10/15 20:58:00;;;;;;;17.17;12.82;;;;;;;;;;10444613;28;20112;-85
2021/10/15 21:03:01;;;;;;;18.38;12.27;;;;;;;;;;10414625;28;20037;-85
2021/10/15 21:08:02;;;;;;;16.42;11.13;;;;;;;;;;10412401;28;20040;-84
2021/10/15 21:13:03;;;;;;;14.38;9.35;;;;;;;;;;10411955;28;20526;-85
2021/10/15 21:18:04;;;;;;;13.10;9.25;;;;;;;;;;10428986;28;20037;-85
2021/10/15 21:23:05;;;;;;;11.88;8.40;;;;;;;;;;10409177;28;20060;-84
2021/10/15 21:28:06;;;;;;;13.00;8.25;;;;;;;;;;10408300;28;20032;-84
2021/10/15 21:33:07;;;;;;;10.52;7.32;;;;;;;;;;10408161;28;20507;-84
2021/10/15 21:38:08;;;;;;;10.70;6.85;;;;;;;;;;10410147;28;20103;-84
2021/10/15 21:43:12;;;;;;;8.55;6.30;;;;;;;;;;10407771;28;20061;-84
2021/10/15 21:48:15;;;;;;;9.27;6.13;;;;;;;;;;10409927;28;20045;-85
2021/10/15 21:53:16;;;;;;;8.18;5.25;;;;;;;;;;10409287;28;20499;-84
2021/10/15 21:58:17;;;;;;;7.60;5.28;;;;;;;;;;10426902;28;20455;-84
2021/10/15 22:03:18;;;;;;;9.10;5.43;;;;;;;;;;10405901;28;20057;-83
2021/10/15 22:08:19;;;;;;;7.45;4.95;;;;;;;;;;10405544;28;20475;-83
2021/10/15 22:13:20;;;;;;;6.00;4.47;;;;;;;;;;10406766;28;20029;-83
2021/10/15 22:18:21;;;;;;;8.73;4.63;;;;;;;;;;10406813;28;20041;-85
2021/10/15 22:23:22;;;;;;;8.60;5.03;;;;;;;;;;10407132;28;20030;-83
2021/10/15 22:28:23;;;;;;;7.45;4.38;;;;;;;;;;10406444;28;20029;-84
2021/10/15 22:33:24;;;;;;;6.13;4.22;;;;;;;;;;10412222;28;20112;-85
2021/10/15 22:38:25;;;;;;;8.93;4.55;;;;;;;;;;10413824;28;20085;-85
2021/10/15 22:43:26;;;;;;;6.93;4.30;;;;;;;;;;10413197;28;20352;-84
2021/10/15 22:48:27;;;;;;;7.05;4.00;;;;;;;;;;10413486;28;20022;-85
2021/10/15 22:53:28;;;;;;;6.63;4.03;;;;;;;;;;10412194;28;20313;-84
2021/10/15 22:58:29;;;;;;;8.52;4.15;;;;;;;;;;10413705;28;20038;-83
2021/10/15 23:03:31;;;;;;;7.85;4.00;;;;;;;;;;10412932;28;20044;-83
2021/10/15 23:08:32;;;;;;;5.38;4.05;;;;;;;;;;10412390;28;20028;-82
2021/10/15 23:13:33;;;;;;;6.30;4.20;;;;;;;;;;10412279;28;20463;-84
2021/10/15 23:18:34;;;;;;;7.50;4.25;;;;;;;;;;10412899;28;20038;-86
2021/10/15 23:23:35;;;;;;;7.10;4.22;;;;;;;;;;10413720;28;20507;-86
2021/10/15 23:28:36;;;;;;;4.75;3.60;;;;;;;;;;10414353;28;20029;-84
2021/10/15 23:33:37;;;;;;;5.72;3.58;;;;;;;;;;10414198;28;20030;-86
2021/10/15 23:38:38;;;;;;;5.22;3.60;;;;;;;;;;10417091;28;20021;-84
2021/10/15 23:43:39;;;;;;;6.65;4.07;;;;;;;;;;10445879;28;20459;-86
2021/10/15 23:48:40;;;;;;;5.97;3.58;;;;;;;;;;10439301;28;20029;-86
2021/10/15 23:53:41;;;;;;;5.13;3.88;;;;;;;;;;10426590;28;20036;-86
2021/10/15 23:58:42;;;;;;;6.78;3.75;;;;;;;;;;10428119;28;20030;-86
